Time;durP1;ratioP1;P1;durP2;ratioP2;P2;SDS_P1;SDS_P2;PMS_P1;PMS_P2;Temp;Humidity;BMP_temperature;BMP_pressure;BME280_temperature;BME280_humidity;BME280_pressure;Samples;Min_cycle;Max_cycle;Signal;HPM_P1;HPM_P2
2024/02/24 00:00:48;;;;;;;5.07;1.90;;;;;;;4.31;100.00;99185.72;5034394;28;20037;-78
2024/02/24 00:03:13;;;;;;;2.72;1.48;;;;;;;4.31;100.00;99185.72;5032775;28;20033;-78
2024/02/24 00:05:38;;;;;;;3.53;1.27;;;;;;;4.40;100.00;99178.88;5030974;28;20111;-79
2024/02/24 00:08:04;;;;;;;6.35;1.88;;;;;;;4.33;100.00;99181.25;5050777;28;20029;-77
2024/02/24 00:10:29;;;;;;;3.03;1.33;;;;;;;4.23;100.00;99175.44;5018155;28;20025;-78
2024/02/24 00:12:56;;;;;;;4.13;1.65;;;;;;;4.24;100.00;99174.50;5044577;28;20492;-79
2024/02/24 00:15:21;;;;;;;3.05;1.20;;;;;;;4.19;100.00;99179.28;5022275;28;20025;-78
2024/02/24 00:17:47;;;;;;;3.35;1.40;;;;;;;4.25;100.00;99168.38;5046094;28;20036;-80
2024/02/24 00:20:12;;;;;;;7.53;2.03;;;;;;;4.22;100.00;99161.81;5030994;28;20504;-79
2024/02/24 00:22:38;;;;;;;1.70;0.93;;;;;;;4.23;100.00;99160.84;5046640;28;20420;-79
2024/02/24 00:25:03;;;;;;;2.97;1.13;;;;;;;4.15;100.00;99165.94;5032932;28;20024;-79
2024/02/24 00:27:29;;;;;;;1.65;0.90;;;;;;;4.12;100.00;99168.81;5029329;28;20037;-79
2024/02/24 00:29:54;;;;;;;2.63;1.13;;;;;;;4.09;100.00;99162.22;5049304;28;20084;-79
2024/02/24 00:32:20;;;;;;;2.83;0.98;;;;;;;4.02;100.00;99161.25;5051355;28;20041;-78
2024/02/24 00:34:45;;;;;;;3.63;1.27;;;;;;;3.95;100.00;99165.38;5031695;28;20064;-79
2024/02/24 00:37:11;;;;;;;4.35;1.92;;;;;;;3.96;100.00;99168.75;5016753;28;20045;-78
2024/02/24 00:39:37;;;;;;;2.78;1.30;;;;;;;3.93;100.00;99169.06;5020551;28;20049;-77
2024/02/24 00:42:07;;;;;;;3.45;1.23;;;;;;;3.93;100.00;99171.63;5032331;28;20095;-78
2024/02/24 00:44:32;;;;;;;4.43;1.50;;;;;;;3.94;100.00;99173.22;5046849;28;20033;-79
2024/02/24 00:46:58;;;;;;;3.70;1.42;;;;;;;3.99;100.00;99171.78;5027755;28;20036;-79
2024/02/24 00:49:23;;;;;;;2.67;1.10;;;;;;;3.98;100.00;99171.97;5032106;28;20031;-79
2024/02/24 00:51:48;;;;;;;2.95;1.15;;;;;;;4.03;100.00;99172.28;5048275;28;20442;-78
2024/02/24 00:54:14;;;;;;;4.05;1.40;;;;;;;3.98;100.00;99169.41;5031086;28;20600;-78
2024/02/24 00:56:40;;;;;;;2.38;1.20;;;;;;;3.91;100.00;99176.88;5049370;28;20543;-77
2024/02/24 00:59:05;;;;;;;2.63;1.15;;;;;;;3.89;100.00;99171.91;5030945;28;20037;-76
2024/02/24 01:01:31;;;;;;;5.45;1.25;;;;;;;3.78;100.00;99177.28;5018711;28;20044;-78
2024/02/24 01:03:56;;;;;;;3.95;0.93;;;;;;;3.75;100.00;99189.59;5013717;28;20073;-79
2024/02/24 01:06:22;;;;;;;5.68;1.50;;;;;;;3.71;100.00;99191.66;5018198;28;20119;-78
2024/02/24 01:08:47;;;;;;;3.63;1.15;;;;;;;3.70;100.00;99188.31;5045749;28;20029;-79
2024/02/24 01:11:13;;;;;;;3.90;1.10;;;;;;;3.70;100.00;99187.50;5011501;28;20044;-78
2024/02/24 01:13:38;;;;;;;3.45;1.48;;;;;;;3.69;100.00;99191.84;5031131;28;20034;-79
2024/02/24 01:16:04;;;;;;;8.23;1.20;;;;;;;3.70;100.00;99195.22;5011155;28;20044;-78
2024/02/24 01:18:29;;;;;;;4.88;1.23;;;;;;;3.63;100.00;99191.63;5032191;28;20035;-79
2024/02/24 01:20:55;;;;;;;4.65;1.70;;;;;;;3.59;100.00;99187.75;5047160;28;20045;-78
2024/02/24 01:23:24;;;;;;;2.28;1.02;;;;;;;3.57;100.00;99182.78;5025354;28;20132;-78
2024/02/24 01:25:50;;;;;;;4.40;1.35;;;;;;;3.71;100.00;99189.09;5046156;28;20049;-76
2024/02/24 01:28:15;;;;;;;1.70;1.10;;;;;;;3.64;100.00;99188.13;5016794;28;20021;-79
2024/02/24 01:30:41;;;;;;;3.97;1.00;;;;;;;3.57;100.00;99184.53;5047807;28;20034;-79
2024/02/24 01:33:06;;;;;;;3.92;1.10;;;;;;;3.65;100.00;99174.34;5031681;28;20048;-78
2024/02/24 01:35:32;;;;;;;2.00;1.58;;;;;;;3.62;100.00;99178.00;5047942;28;20032;-78
2024/02/24 01:37:58;;;;;;;2.80;1.00;;;;;;;3.61;100.00;99173.03;5041136;28;20326;-78
2024/02/24 01:40:23;;;;;;;2.72;1.30;;;;;;;3.51;100.00;99173.13;5030462;28;20503;-78
2024/02/24 01:42:48;;;;;;;2.63;1.20;;;;;;;3.48;100.00;99181.94;5023283;28;21240;-78
2024/02/24 01:45:14;;;;;;;3.65;1.30;;;;;;;3.45;100.00;99178.88;5011727;28;20037;-79
2024/02/24 01:47:43;;;;;;;3.67;1.33;;;;;;;3.54;100.00;99170.25;5030161;28;20029;-80
2024/02/24 01:50:13;;;;;;;3.47;1.27;;;;;;;3.44;100.00;99175.47;5032604;28;20063;-78
2024/02/24 01:52:40;;;;;;;2.75;1.42;;;;;;;3.40;100.00;99181.84;5049007;28;20044;-79
2024/02/24 01:55:07;;;;;;;4.55;1.40;;;;;;;3.37;100.00;99174.50;5031520;28;20128;-78
2024/02/24 01:57:42;;;;;;;2.42;1.15;;;;;;;3.38;100.00;99183.78;5025500;28;20044;-79
2024/02/24 02:00:09;;;;;;;3.55;1.65;;;;;;;3.38;100.00;99190.66;5029373;28;20038;-79
2024/02/24 02:02:42;;;;;;;2.50;1.08;;;;;;;3.36;100.00;99200.25;5027725;28;20124;-77
2024/02/24 02:05:08;;;;;;;5.57;1.10;;;;;;;3.34;100.00;99197.03;5031069;28;20063;-78
2024/02/24 02:07:35;;;;;;;3.95;1.48;;;;;;;3.35;100.00;99199.44;5013118;28;20033;-79
2024/02/24 02:10:01;;;;;;;2.00;1.10;;;;;;;3.38;100.00;99195.78;5030540;28;20399;-78
2024/02/24 02:12:27;;;;;;;4.50;1.10;;;;;;;3.41;100.00;99198.03;5042839;28;20037;-80
2024/02/24 02:14:53;;;;;;;3.35;0.90;;;;;;;3.42;100.00;99194.53;5011110;28;20032;-79
2024/02/24 02:17:19;;;;;;;2.65;1.17;;;;;;;3.47;100.00;99197.47;5047251;28;20037;-78
2024/02/24 02:19:45;;;;;;;5.80;1.88;;;;;;;3.57;100.00;99199.91;5028357;28;20024;-79
2024/02/24 02:22:15;;;;;;;4.47;0.98;;;;;;;3.62;100.00;99195.16;5041612;28;20214;-78
2024/02/24 02:24:42;;;;;;;7.78;1.20;;;;;;;3.60;100.00;99195.31;5028151;28;20064;-79
2024/02/24 02:27:08;;;;;;;2.90;1.17;;;;;;;3.60;100.00;99195.31;5029397;28;20052;-78
2024/02/24 02:29:33;;;;;;;3.13;1.20;;;;;;;3.64;100.00;99195.81;5044336;28;20044;-78
2024/02/24 02:32:00;;;;;;;2.97;1.20;;;;;;;3.67;100.00;99203.19;5043460;28;20049;-78
2024/02/24 02:34:26;;;;;;;3.58;1.42;;;;;;;3.59;100.00;99201.38;5027603;28;20115;-77
2024/02/24 02:36:51;;;;;;;5.43;1.20;;;;;;;3.63;100.00;99204.44;5040634;28;20128;-79
2024/02/24 02:39:17;;;;;;;3.55;1.20;;;;;;;3.56;100.00;99203.44;5014830;28;20566;-78
2024/02/24 02:41:42;;;;;;;2.83;1.10;;;;;;;3.56;100.00;99201.69;5046104;28;20072;-78
2024/02/24 02:44:08;;;;;;;3.45;1.17;;;;;;;3.58;100.00;99198.94;5026139;28;20029;-78
2024/02/24 02:46:34;;;;;;;5.97;0.85;;;;;;;3.62;100.00;99202.84;5028007;28;20443;-79
2024/02/24 02:48:59;;;;;;;2.08;0.80;;;;;;;3.54;100.00;99201.00;5026910;28;20091;-78
2024/02/24 02:51:24;;;;;;;2.28;0.80;;;;;;;3.59;100.00;99198.81;5008568;28;20037;-78
2024/02/24 02:53:50;;;;;;;4.53;1.25;;;;;;;3.59;100.00;99203.13;5026743;28;20032;-77
2024/02/24 02:56:20;;;;;;;7.43;1.05;;;;;;;3.50;100.00;99200.53;5009553;28;20033;-78
2024/02/24 02:58:48;;;;;;;1.67;1.00;;;;;;;3.54;100.00;99197.66;5044264;28;20029;-79
2024/02/24 03:01:14;;;;;;;4.25;0.85;;;;;;;3.52;100.00;99195.22;5008642;28;20037;-80
2024/02/24 03:03:39;;;;;;;4.50;0.90;;;;;;;3.44;100.00;99197.75;5030329;28;20052;-79
2024/02/24 03:06:05;;;;;;;6.75;1.65;;;;;;;3.39;100.00;99193.06;5011305;28;20037;-79
2024/02/24 03:08:34;;;;;;;1.48;0.70;;;;;;;3.41;100.00;99201.41;5047815;28;20025;-78
2024/02/24 03:11:02;;;;;;;1.95;0.63;;;;;;;3.44;100.00;99205.44;5028122;28;20041;-79
2024/02/24 03:13:27;;;;;;;1.55;0.60;;;;;;;3.44;100.00;99198.53;5039988;23;20052;-73
2024/02/24 03:15:53;;;;;;;1.25;0.93;;;;;;;3.37;100.00;99196.72;5003586;28;20038;-73
2024/02/24 03:18:18;;;;;;;0.80;0.70;;;;;;;3.38;100.00;99209.41;4975839;28;20042;-73
2024/02/24 03:20:44;;;;;;;2.42;1.30;;;;;;;3.36;100.00;99206.19;4991637;28;20034;-73
2024/02/24 03:23:09;;;;;;;5.47;1.10;;;;;;;3.30;100.00;99210.13;5020856;28;20438;-73
2024/02/24 03:25:35;;;;;;;2.13;0.90;;;;;;;3.34;100.00;99220.91;5028623;28;20095;-73
2024/02/24 03:28:00;;;;;;;2.33;0.90;;;;;;;3.34;100.00;99220.09;5012816;28;20082;-73
2024/02/24 03:30:26;;;;;;;3.67;0.88;;;;;;;3.50;100.00;99215.91;5027921;28;20029;-73
2024/02/24 03:32:51;;;;;;;2.92;1.00;;;;;;;3.49;100.00;99221.19;5026916;28;20025;-73
2024/02/24 03:35:17;;;;;;;1.40;0.95;;;;;;;3.40;100.00;99222.06;5025842;28;20056;-73
2024/02/24 03:37:42;;;;;;;1.70;0.75;;;;;;;3.47;100.00;99226.44;5023772;28;20388;-72
2024/02/24 03:40:08;;;;;;;2.00;0.90;;;;;;;3.62;100.00;99216.47;5013371;28;20040;-73
2024/02/24 03:42:34;;;;;;;1.60;0.80;;;;;;;3.59;100.00;99218.53;5024157;28;20083;-73
2024/02/24 03:45:00;;;;;;;4.72;1.00;;;;;;;3.65;100.00;99220.47;5012847;28;20025;-73
2024/02/24 03:47:26;;;;;;;3.88;0.93;;;;;;;3.69;100.00;99220.03;5028631;28;20025;-73
2024/02/24 03:49:51;;;;;;;3.78;0.95;;;;;;;3.73;100.00;99217.16;5008602;28;20407;-73
2024/02/24 03:52:17;;;;;;;1.00;0.63;;;;;;;3.70;100.00;99219.06;5028622;28;20145;-73
2024/02/24 03:54:42;;;;;;;3.38;1.00;;;;;;;3.63;100.00;99228.31;5027136;28;20030;-73
2024/02/24 03:57:08;;;;;;;2.28;0.90;;;;;;;3.66;100.00;99225.47;5027745;28;20033;-73
2024/02/24 03:59:33;;;;;;;1.73;1.10;;;;;;;3.64;100.00;99224.00;5032820;28;20041;-73
2024/02/24 04:01:58;;;;;;;1.27;0.85;;;;;;;3.67;100.00;99226.25;5012164;28;21622;-73
2024/02/24 04:04:24;;;;;;;1.48;0.90;;;;;;;3.58;100.00;99229.72;4992481;28;20044;-73
2024/02/24 04:06:49;;;;;;;6.07;1.02;;;;;;;3.66;100.00;99232.34;5008970;28;20065;-73
2024/02/24 04:09:15;;;;;;;1.38;0.98;;;;;;;3.61;100.00;99237.13;4993547;28;20018;-73
2024/02/24 04:11:40;;;;;;;6.78;1.23;;;;;;;3.51;100.00;99234.66;5006736;28;20038;-73
2024/02/24 04:14:06;;;;;;;8.57;1.25;;;;;;;3.44;100.00;99239.53;5029599;28;20451;-73
2024/02/24 04:16:31;;;;;;;1.75;0.98;;;;;;;3.42;100.00;99251.69;5018193;28;20614;-73
2024/02/24 04:18:57;;;;;;;4.07;0.82;;;;;;;3.36;100.00;99246.38;4988176;28;20361;-73
2024/02/24 04:21:22;;;;;;;7.45;1.02;;;;;;;3.30;100.00;99252.91;5006255;28;20034;-73
2024/02/24 04:23:48;;;;;;;2.65;1.10;;;;;;;3.31;100.00;99245.06;4991233;28;20428;-73
2024/02/24 04:26:13;;;;;;;3.28;1.25;;;;;;;3.28;100.00;99252.25;4999748;28;20038;-73
2024/02/24 04:28:40;;;;;;;4.97;1.15;;;;;;;3.32;100.00;99248.44;5025573;28;20037;-73
2024/02/24 04:31:06;;;;;;;2.05;0.85;;;;;;;3.28;100.00;99250.47;5010084;28;20496;-72
2024/02/24 04:33:31;;;;;;;3.20;1.17;;;;;;;3.39;100.00;99246.06;5003112;28;20037;-73
2024/02/24 04:35:57;;;;;;;3.00;1.10;;;;;;;3.40;100.00;99250.25;4996262;28;20487;-73
2024/02/24 04:38:23;;;;;;;2.50;1.05;;;;;;;3.27;100.00;99259.09;5031571;28;20531;-73
2024/02/24 04:40:48;;;;;;;2.33;1.35;;;;;;;3.19;100.00;99263.34;5025162;28;20053;-72
2024/02/24 04:43:13;;;;;;;2.42;1.30;;;;;;;3.17;100.00;99265.25;5014154;28;20038;-73
2024/02/24 04:45:39;;;;;;;2.20;0.82;;;;;;;3.15;100.00;99269.72;5029326;28;20026;-73
2024/02/24 04:48:05;;;;;;;3.38;1.00;;;;;;;3.26;100.00;99272.88;5028002;28;20523;-73
2024/02/24 04:50:30;;;;;;;3.40;1.35;;;;;;;3.19;100.00;99260.78;5019374;28;20583;-73
2024/02/24 04:52:56;;;;;;;2.40;1.13;;;;;;;3.26;100.00;99272.06;5028296;28;20056;-73
2024/02/24 04:55:21;;;;;;;2.67;1.10;;;;;;;3.25;100.00;99273.81;5022356;28;20037;-73
2024/02/24 04:57:47;;;;;;;4.45;1.30;;;;;;;3.24;100.00;99279.06;5028858;28;20029;-73
2024/02/24 05:00:12;;;;;;;2.65;0.98;;;;;;;3.20;100.00;99278.59;5009234;28;20041;-73
2024/02/24 05:02:38;;;;;;;4.53;1.48;;;;;;;3.21;100.00;99290.44;4991905;28;20504;-72
2024/02/24 05:05:04;;;;;;;2.53;1.02;;;;;;;3.24;100.00;99287.59;5028390;28;20036;-73
2024/02/24 05:07:29;;;;;;;2.72;1.10;;;;;;;3.17;100.00;99294.25;5012748;28;20034;-73
2024/02/24 05:09:56;;;;;;;2.67;1.10;;;;;;;3.19;100.00;99297.47;5033371;28;20410;-73
2024/02/24 05:12:21;;;;;;;2.90;0.93;;;;;;;3.19;100.00;99300.03;5028144;28;20068;-73
2024/02/24 05:14:49;;;;;;;7.93;1.33;;;;;;;3.19;100.00;99300.03;5032451;28;20025;-73
2024/02/24 05:17:15;;;;;;;2.45;1.30;;;;;;;3.21;100.00;99298.13;5007998;28;20565;-73
2024/02/24 05:19:40;;;;;;;5.88;1.23;;;;;;;3.35;100.00;99299.34;4992430;28;20041;-73
2024/02/24 05:22:06;;;;;;;2.80;0.90;;;;;;;3.30;100.00;99306.69;5005511;28;20049;-73
2024/02/24 05:24:32;;;;;;;4.70;1.17;;;;;;;3.24;100.00;99305.53;5029413;28;20131;-73
2024/02/24 05:26:57;;;;;;;6.45;1.20;;;;;;;3.21;100.00;99299.88;5008405;28;20450;-73
2024/02/24 05:29:24;;;;;;;5.95;1.10;;;;;;;3.25;100.00;99304.56;5025878;28;20026;-73
2024/02/24 05:31:49;;;;;;;4.20;1.20;;;;;;;3.24;100.00;99302.13;5032115;28;20037;-73
2024/02/24 05:34:15;;;;;;;2.88;1.05;;;;;;;3.19;100.00;99310.25;5027781;28;20091;-72
2024/02/24 05:36:43;;;;;;;1.88;1.15;;;;;;;3.25;100.00;99309.69;5015644;28;20030;-73
2024/02/24 05:39:09;;;;;;;3.72;0.95;;;;;;;3.20;100.00;99317.00;4991783;28;20076;-72
2024/02/24 05:41:34;;;;;;;2.63;1.05;;;;;;;3.20;100.00;99314.44;5009679;28;20461;-72
2024/02/24 05:44:00;;;;;;;1.92;1.08;;;;;;;3.27;100.00;99314.66;5012576;28;20065;-72
2024/02/24 05:46:25;;;;;;;10.73;1.33;;;;;;;3.29;100.00;99312.75;5012510;28;20037;-72
2024/02/24 05:48:51;;;;;;;4.30;0.70;;;;;;;3.37;100.00;99315.41;5029170;28;20495;-73
2024/02/24 05:51:18;;;;;;;3.28;1.02;;;;;;;3.43;100.00;99319.97;5027153;28;20029;-73
2024/02/24 05:53:43;;;;;;;1.95;1.08;;;;;;;3.46;100.00;99316.28;5026717;28;20483;-72
2024/02/24 05:56:09;;;;;;;4.97;1.00;;;;;;;3.44;100.00;99308.75;5026190;28;20042;-73
2024/02/24 05:58:34;;;;;;;2.03;0.98;;;;;;;3.46;100.00;99319.66;5010690;28;20546;-73
2024/02/24 06:01:02;;;;;;;4.88;1.13;;;;;;;3.58;100.00;99322.00;5025471;28;20514;-73
2024/02/24 06:03:28;;;;;;;3.22;1.10;;;;;;;3.49;100.00;99327.06;5023739;28;20033;-72
2024/02/24 06:05:54;;;;;;;4.35;1.00;;;;;;;3.47;100.00;99333.28;5007654;28;20175;-72
2024/02/24 06:08:19;;;;;;;6.15;1.10;;;;;;;3.47;100.00;99335.84;5023863;28;20113;-73
2024/02/24 06:10:46;;;;;;;1.73;0.93;;;;;;;3.47;100.00;99328.16;5024777;28;20037;-73
2024/02/24 06:13:12;;;;;;;2.40;1.00;;;;;;;3.55;100.00;99338.47;5024426;28;20685;-73
2024/02/24 06:15:38;;;;;;;7.13;1.13;;;;;;;3.58;100.00;99335.63;5028049;28;20120;-73
2024/02/24 06:18:04;;;;;;;2.78;0.98;;;;;;;3.49;100.00;99333.94;5026322;28;20037;-73
2024/02/24 06:20:29;;;;;;;2.22;1.10;;;;;;;3.56;100.00;99341.84;5026488;28;20107;-73
2024/02/24 06:22:54;;;;;;;4.47;0.95;;;;;;;3.56;100.00;99349.53;5028598;28;20021;-73
2024/02/24 06:25:20;;;;;;;5.82;1.10;;;;;;;3.49;100.00;99350.13;5025054;28;20041;-74
2024/02/24 06:27:46;;;;;;;6.15;1.13;;;;;;;3.44;100.00;99357.44;5008558;28;20040;-72
2024/02/24 06:30:11;;;;;;;6.32;1.55;;;;;;;3.49;100.00;99354.44;5011784;28;20025;-72
2024/02/24 06:32:38;;;;;;;3.40;0.75;;;;;;;3.59;100.00;99359.50;5008286;28;20040;-73
2024/02/24 06:35:04;;;;;;;4.28;0.90;;;;;;;3.62;100.00;99364.34;5008445;28;20030;-73
2024/02/24 06:37:29;;;;;;;2.67;0.80;;;;;;;3.59;100.00;99362.06;5007262;28;20041;-72
2024/02/24 06:39:55;;;;;;;5.22;1.15;;;;;;;3.61;100.00;99373.78;5009245;28;20033;-72
2024/02/24 06:42:20;;;;;;;3.70;1.10;;;;;;;3.54;100.00;99370.19;5027260;28;20037;-73
2024/02/24 06:44:46;;;;;;;4.15;0.80;;;;;;;3.54;100.00;99371.94;5026832;28;20041;-73
2024/02/24 06:47:11;;;;;;;4.70;1.45;;;;;;;3.44;100.00;99370.25;5008458;28;20033;-72
2024/02/24 06:49:37;;;;;;;3.95;1.88;;;;;;;3.48;100.00;99371.59;5025540;28;20117;-73
2024/02/24 06:52:03;;;;;;;3.90;1.13;;;;;;;3.47;100.00;99371.72;5026829;28;20030;-72
2024/02/24 06:54:29;;;;;;;3.42;1.10;;;;;;;3.55;100.00;99374.38;5026316;28;20029;-72
2024/02/24 06:56:54;;;;;;;2.55;1.00;;;;;;;3.47;100.00;99375.09;5026160;28;20051;-73
2024/02/24 06:59:19;;;;;;;2.30;1.20;;;;;;;3.42;100.00;99384.16;5029782;28;20026;-73
2024/02/24 07:01:45;;;;;;;5.38;1.48;;;;;;;3.42;100.00;99376.47;5028131;28;20088;-73
2024/02/24 07:04:10;;;;;;;4.10;1.05;;;;;;;3.37;100.00;99382.06;5027951;28;20025;-73
2024/02/24 07:06:36;;;;;;;1.38;1.00;;;;;;;3.36;100.00;99384.75;5027283;28;20092;-73
2024/02/24 07:09:02;;;;;;;4.65;1.38;;;;;;;3.48;100.00;99384.41;5032577;28;20030;-73
2024/02/24 07:11:28;;;;;;;4.38;1.50;;;;;;;3.41;100.00;99396.19;5030042;28;20034;-73
2024/02/24 07:13:54;;;;;;;2.78;1.33;;;;;;;3.42;100.00;99390.09;5015308;28;20037;-73
2024/02/24 07:16:19;;;;;;;5.00;1.70;;;;;;;3.41;100.00;99392.78;4998267;28;20045;-73
2024/02/24 07:18:45;;;;;;;11.25;4.00;;;;;;;3.41;100.00;99400.47;5031486;28;20121;-73
2024/02/24 07:21:10;;;;;;;6.68;2.80;;;;;;;3.46;100.00;99404.22;5009984;28;20053;-73
2024/02/24 07:23:36;;;;;;;34.78;15.18;;;;;;;3.56;100.00;99416.19;5031090;28;20032;-73
2024/02/24 07:26:02;;;;;;;8.52;4.25;;;;;;;3.56;100.00;99414.44;5012322;28;20093;-73
2024/02/24 07:28:28;;;;;;;5.15;2.55;;;;;;;3.66;100.00;99416.94;5029225;28;20734;-73
2024/02/24 07:30:54;;;;;;;2.85;1.25;;;;;;;3.76;100.00;99420.22;5012223;28;20037;-73
2024/02/24 07:33:20;;;;;;;1.83;1.17;;;;;;;3.82;100.00;99427.34;5030173;28;20060;-73
2024/02/24 07:35:46;;;;;;;17.30;6.50;;;;;;;3.84;100.00;99433.16;5013991;28;20029;-73
2024/02/24 07:38:11;;;;;;;2.72;1.20;;;;;;;3.87;100.00;99432.84;5015912;28;20480;-73
2024/02/24 07:40:37;;;;;;;2.90;1.20;;;;;;;3.92;100.00;99437.56;5030700;28;20095;-73
2024/02/24 07:43:02;;;;;;;5.43;2.38;;;;;;;3.98;100.00;99446.41;5030275;28;20376;-73
2024/02/24 07:45:28;;;;;;;6.10;3.20;;;;;;;3.96;100.00;99443.19;5030796;28;20021;-73
2024/02/24 07:47:53;;;;;;;11.15;4.18;;;;;;;4.04;100.00;99443.25;5033166;28;20491;-73
2024/02/24 07:50:19;;;;;;;3.45;1.83;;;;;;;4.01;100.00;99453.81;5013771;28;20061;-73
2024/02/24 07:52:45;;;;;;;5.80;2.30;;;;;;;4.07;100.00;99459.16;5032101;28;20021;-73
2024/02/24 07:55:10;;;;;;;18.17;6.82;;;;;;;3.99;100.00;99461.63;5015002;28;20387;-73
2024/02/24 07:57:35;;;;;;;4.82;1.67;;;;;;;4.00;100.00;99462.47;5031790;28;20144;-74
2024/02/24 08:00:01;;;;;;;6.32;2.70;;;;;;;4.01;100.00;99466.63;5021763;28;20048;-73
2024/02/24 08:02:27;;;;;;;4.45;1.27;;;;;;;4.12;100.00;99463.84;5031231;28;20033;-73
2024/02/24 08:04:52;;;;;;;2.60;1.30;;;;;;;4.10;100.00;99465.75;5030452;28;20033;-75
2024/02/24 08:07:18;;;;;;;5.07;2.75;;;;;;;4.00;100.00;99465.84;4995958;28;20026;-73
2024/02/24 08:09:44;;;;;;;6.95;2.17;;;;;;;4.02;100.00;99473.38;5011257;28;20124;-74
2024/02/24 08:12:09;;;;;;;10.35;4.25;;;;;;;3.97;100.00;99480.72;5030107;28;20575;-73
2024/02/24 08:14:36;;;;;;;7.93;1.77;;;;;;;4.02;100.00;99481.88;5014975;28;20130;-73
2024/02/24 08:17:01;;;;;;;3.95;1.25;;;;;;;4.09;100.00;99482.91;5027607;28;20112;-73
2024/02/24 08:19:27;;;;;;;4.40;2.40;;;;;;;4.07;100.00;99484.03;5026988;28;20080;-74
2024/02/24 08:21:53;;;;;;;3.92;2.00;;;;;;;4.06;100.00;99492.66;5028567;28;20040;-73
2024/02/24 08:24:18;;;;;;;3.80;2.05;;;;;;;4.13;100.00;99490.34;5012194;28;20116;-73
2024/02/24 08:26:45;;;;;;;4.93;1.80;;;;;;;4.12;100.00;99493.84;5029347;28;20041;-74
2024/02/24 08:29:10;;;;;;;4.85;2.70;;;;;;;4.19;100.00;99500.81;5010141;28;20026;-74
2024/02/24 08:31:37;;;;;;;4.72;2.65;;;;;;;4.19;100.00;99495.69;5010402;28;20518;-74
2024/02/24 08:34:02;;;;;;;8.90;2.38;;;;;;;4.17;100.00;99505.28;5008282;28;20052;-73
2024/02/24 08:36:28;;;;;;;7.63;2.22;;;;;;;4.12;100.00;99512.59;5028168;28;20671;-74
2024/02/24 08:38:53;;;;;;;6.88;3.92;;;;;;;4.12;100.00;99510.03;4967242;28;20036;-73
2024/02/24 08:41:19;;;;;;;7.38;3.53;;;;;;;4.11;100.00;99511.00;5009455;28;20085;-74
2024/02/24 08:43:44;;;;;;;3.92;2.25;;;;;;;4.17;100.00;99517.31;5008933;28;20085;-74
2024/02/24 08:46:10;;;;;;;4.88;2.10;;;;;;;4.16;100.00;99519.03;4991856;28;20511;-74
2024/02/24 08:48:35;;;;;;;7.28;4.55;;;;;;;4.14;100.00;99528.66;5009482;28;20022;-74
2024/02/24 08:51:03;;;;;;;3.78;1.88;;;;;;;4.00;100.00;99519.69;4995092;28;21976;-74
2024/02/24 08:53:28;;;;;;;5.30;2.95;;;;;;;4.09;100.00;99533.44;5015947;28;20034;-74
2024/02/24 08:55:54;;;;;;;3.92;2.35;;;;;;;4.09;100.00;99529.09;5007722;28;20076;-74
2024/02/24 08:58:19;;;;;;;3.08;1.50;;;;;;;4.09;100.00;99536.00;5012425;28;20041;-73
2024/02/24 09:00:45;;;;;;;3.30;1.55;;;;;;;4.13;100.00;99533.97;4993049;28;20116;-74
2024/02/24 09:03:10;;;;;;;3.78;1.98;;;;;;;4.18;100.00;99534.31;4988065;28;20027;-74
2024/02/24 09:05:35;;;;;;;4.55;2.10;;;;;;;4.16;100.00;99541.34;4990827;28;20542;-74
2024/02/24 09:08:01;;;;;;;3.45;1.50;;;;;;;4.18;100.00;99542.00;4987908;28;20539;-73
2024/02/24 09:10:26;;;;;;;3.47;1.98;;;;;;;4.16;100.00;99556.75;4989391;28;20662;-74
2024/02/24 09:12:52;;;;;;;3.28;1.23;;;;;;;4.33;100.00;99561.06;5007733;28;20435;-74
2024/02/24 09:15:17;;;;;;;3.03;1.88;;;;;;;4.34;100.00;99556.78;5007256;28;20433;-75
2024/02/24 09:17:43;;;;;;;3.45;0.80;;;;;;;4.23;100.00;99562.91;4991289;28;20039;-74
2024/02/24 09:20:09;;;;;;;2.45;0.88;;;;;;;4.25;100.00;99568.69;5011829;28;20064;-75
2024/02/24 09:22:35;;;;;;;1.55;0.90;;;;;;;4.29;100.00;99577.72;5020917;28;20037;-74
2024/02/24 09:25:01;;;;;;;2.90;1.23;;;;;;;4.24;100.00;99574.81;4992016;28;20381;-74
2024/02/24 09:27:26;;;;;;;4.30;1.15;;;;;;;4.99;100.00;99580.44;5007768;28;20073;-74
2024/02/24 09:29:52;;;;;;;0.95;0.85;;;;;;;5.04;100.00;99585.13;5008320;28;20034;-73
2024/02/24 09:32:17;;;;;;;2.95;1.40;;;;;;;5.24;100.00;99593.47;5009163;28;20034;-73
2024/02/24 09:34:44;;;;;;;4.35;1.17;;;;;;;5.54;100.00;99594.75;5004136;28;20037;-73
2024/02/24 09:37:10;;;;;;;6.72;1.08;;;;;;;5.60;100.00;99607.00;5013284;28;20046;-73
2024/02/24 09:39:40;;;;;;;2.88;0.90;;;;;;;5.68;100.00;99611.38;5009366;28;20033;-73
2024/02/24 09:42:09;;;;;;;3.65;1.00;;;;;;;5.86;100.00;99603.59;5022532;28;20029;-73
2024/02/24 09:44:35;;;;;;;3.03;1.02;;;;;;;5.87;100.00;99597.47;5004304;28;20041;-73
2024/02/24 09:47:02;;;;;;;2.65;0.98;;;;;;;5.72;100.00;99614.47;5007834;28;20046;-73
2024/02/24 09:49:29;;;;;;;3.85;1.25;;;;;;;5.84;100.00;99614.03;4990762;28;20037;-73
2024/02/24 09:51:55;;;;;;;2.10;1.10;;;;;;;5.85;100.00;99617.41;5025979;28;20059;-73
2024/02/24 09:54:20;;;;;;;2.05;0.95;;;;;;;5.87;100.00;99636.06;4992037;28;20034;-75
2024/02/24 09:56:51;;;;;;;3.58;0.80;;;;;;;5.74;100.00;99627.97;5007500;28;20037;-73
2024/02/24 09:59:17;;;;;;;1.65;0.75;;;;;;;5.64;100.00;99628.88;5011099;28;20080;-74
2024/02/24 10:01:47;;;;;;;4.05;1.10;;;;;;;5.74;100.00;99630.53;5009409;28;20057;-73
2024/02/24 10:04:14;;;;;;;5.00;1.75;;;;;;;5.74;100.00;99638.25;4993990;28;20064;-73
2024/02/24 10:06:41;;;;;;;5.72;1.15;;;;;;;5.72;100.00;99628.13;5011302;28;20041;-73
2024/02/24 10:09:06;;;;;;;6.50;2.25;;;;;;;5.95;100.00;99640.44;4989810;28;20091;-73
2024/02/24 10:11:35;;;;;;;7.45;2.15;;;;;;;5.88;100.00;99645.41;5003705;28;20548;-73
2024/02/24 10:14:01;;;;;;;6.88;2.30;;;;;;;6.03;100.00;99640.53;4994629;28;20097;-73
2024/02/24 10:16:26;;;;;;;4.50;0.90;;;;;;;6.17;99.99;99644.28;5004551;28;20046;-73
2024/02/24 10:18:52;;;;;;;4.93;2.50;;;;;;;6.09;98.17;99644.25;5009806;28;20022;-73
2024/02/24 10:21:17;;;;;;;9.95;4.82;;;;;;;6.22;99.37;99645.44;4988905;28;20042;-73
2024/02/24 10:23:44;;;;;;;4.80;1.45;;;;;;;6.28;98.55;99645.78;4991719;28;20042;-74
2024/02/24 10:26:10;;;;;;;7.72;3.03;;;;;;;6.33;96.98;99641.78;5005137;28;20038;-74
2024/02/24 10:28:35;;;;;;;3.65;1.38;;;;;;;6.24;94.46;99658.94;4990236;28;20436;-73
2024/02/24 10:31:01;;;;;;;3.33;1.20;;;;;;;6.26;94.63;99652.84;5006655;28;20056;-73
2024/02/24 10:33:29;;;;;;;1.90;0.90;;;;;;;6.24;91.72;99668.44;5016285;28;20029;-73
2024/02/24 10:35:55;;;;;;;4.63;1.35;;;;;;;6.36;91.24;99664.59;4991300;28;20045;-73
2024/02/24 10:38:22;;;;;;;5.65;1.20;;;;;;;6.41;93.09;99670.09;5010416;28;20034;-73
2024/02/24 10:40:49;;;;;;;3.20;0.88;;;;;;;6.31;89.62;99671.19;4989130;28;20088;-73
2024/02/24 10:43:15;;;;;;;2.60;0.70;;;;;;;6.36;88.65;99689.56;5000696;28;20026;-73
2024/02/24 10:45:40;;;;;;;1.20;0.60;;;;;;;6.46;88.27;99682.53;5021173;28;20069;-73
2024/02/24 10:48:06;;;;;;;2.42;0.80;;;;;;;6.50;86.62;99681.25;5008933;28;20034;-73
2024/02/24 10:50:32;;;;;;;2.17;0.85;;;;;;;6.41;86.13;99669.31;5006885;28;20040;-73
2024/02/24 10:53:00;;;;;;;2.45;0.77;;;;;;;6.43;86.35;99680.25;4975365;28;20037;-73
2024/02/24 10:55:28;;;;;;;3.78;0.73;;;;;;;6.57;82.19;99676.25;5007247;28;20053;-73
2024/02/24 10:57:54;;;;;;;6.85;1.02;;;;;;;6.42;79.55;99666.59;5004388;28;20022;-73
2024/02/24 11:00:30;;;;;;;3.42;1.00;;;;;;;6.40;79.11;99678.81;4988729;28;20046;-72
2024/02/24 11:02:58;;;;;;;3.60;0.73;;;;;;;6.47;80.17;99676.41;4993068;28;20030;-73
2024/02/24 11:05:24;;;;;;;1.38;0.65;;;;;;;6.47;82.27;99676.41;5007948;28;20034;-73
2024/02/24 11:07:49;;;;;;;1.48;0.60;;;;;;;6.48;82.37;99682.34;5008354;28;20025;-73
2024/02/24 11:10:18;;;;;;;2.47;0.80;;;;;;;6.34;82.03;99681.97;5007753;28;20049;-73
2024/02/24 11:12:43;;;;;;;3.38;0.82;;;;;;;6.36;80.23;99684.41;5007471;28;20030;-73
2024/02/24 11:15:23;;;;;;;4.32;1.17;;;;;;;6.49;80.78;99689.94;4990404;28;20503;-73
2024/02/24 11:17:51;;;;;;;4.03;0.85;;;;;;;6.56;79.63;99690.91;5006780;28;20073;-73
2024/02/24 11:20:38;;;;;;;6.47;2.60;;;;;;;6.65;80.75;99691.75;5009608;28;20113;-73
2024/02/24 11:23:32;;;;;;;10.48;3.65;;;;;;;6.47;76.85;99686.69;4990140;28;20392;-73
2024/02/24 11:26:10;;;;;;;22.42;9.18;;;;;;;6.63;78.48;99691.13;5012880;28;20045;-73
2024/02/24 11:28:40;;;;;;;6.20;1.80;;;;;;;6.58;76.21;99690.78;4987473;28;20038;-73